createdAt,value
2017-03-20T00:00:27.114Z,0
2017-03-20T00:01:48.632Z,0
2017-03-20T00:03:11.076Z,0
2017-03-20T00:04:33.879Z,0
2017-03-20T00:05:55.759Z,0
2017-03-20T00:07:17.599Z,0
2017-03-20T00:08:39.793Z,0
2017-03-20T00:10:02.239Z,0
2017-03-20T00:11:24.712Z,0
2017-03-20T00:12:46.858Z,0
2017-03-20T00:14:08.379Z,0
2017-03-20T00:15:30.815Z,0
2017-03-20T00:16:53.063Z,0
2017-03-20T00:18:14.899Z,0
2017-03-20T00:19:36.745Z,0
2017-03-20T00:20:59.150Z,0
2017-03-20T00:22:21.627Z,0
2017-03-20T00:23:44.093Z,0
2017-03-20T00:25:05.922Z,0
2017-03-20T00:26:28.006Z,0
2017-03-20T00:27:50.461Z,0
2017-03-20T00:29:12.926Z,0
2017-03-20T00:30:34.900Z,0
2017-03-20T00:31:56.965Z,0
2017-03-20T00:33:19.220Z,0
2017-03-20T00:34:41.938Z,0
2017-03-20T00:36:04.406Z,0
2017-03-20T00:37:26.824Z,0
2017-03-20T00:38:48.622Z,0
2017-03-20T00:40:10.754Z,0
2017-03-20T00:41:32.591Z,0
2017-03-20T00:42:54.717Z,0
2017-03-20T00:44:16.848Z,0
2017-03-20T00:45:38.356Z,0
2017-03-20T00:47:00.168Z,0
2017-03-20T00:48:22.858Z,0
2017-03-20T00:49:44.951Z,0
2017-03-20T00:51:06.815Z,0
2017-03-20T00:52:28.319Z,0
2017-03-20T00:53:50.998Z,0
2017-03-20T00:55:13.498Z,0
2017-03-20T00:56:36.089Z,0
2017-03-20T00:57:58.331Z,0
2017-03-20T00:59:20.864Z,0
2017-03-20T01:00:42.699Z,0
2017-03-20T01:02:04.825Z,0
2017-03-20T01:03:27.343Z,0
2017-03-20T01:04:49.450Z,0
2017-03-20T01:06:11.285Z,0
2017-03-20T01:07:33.442Z,0
2017-03-20T01:08:55.349Z,0
2017-03-20T01:10:17.207Z,0
2017-03-20T01:11:38.726Z,0
2017-03-20T01:13:00.554Z,0
2017-03-20T01:14:22.369Z,0
2017-03-20T01:15:45.125Z,0
2017-03-20T01:17:07.582Z,0
2017-03-20T01:18:29.750Z,0
2017-03-20T01:19:52.266Z,0
2017-03-20T01:21:14.369Z,0
2017-03-20T01:22:36.818Z,0
2017-03-20T01:23:58.956Z,0
2017-03-20T01:25:21.108Z,0
2017-03-20T01:26:44.047Z,0
2017-03-20T01:28:06.509Z,0
2017-03-20T01:29:28.263Z,0
2017-03-20T01:30:50.725Z,0
2017-03-20T01:32:13.170Z,0
2017-03-20T01:33:35.730Z,0
2017-03-20T01:34:57.602Z,0
2017-03-20T01:36:19.545Z,0
2017-03-20T01:37:41.695Z,0
2017-03-20T01:39:04.065Z,0
2017-03-20T01:40:26.220Z,0
2017-03-20T01:41:48.031Z,0
2017-03-20T01:43:10.159Z,0
2017-03-20T01:44:32.615Z,0
2017-03-20T01:45:54.754Z,0
2017-03-20T01:47:17.186Z,0
2017-03-20T01:48:39.687Z,0
2017-03-20T01:50:01.952Z,0
2017-03-20T01:51:24.268Z,0
2017-03-20T01:52:46.715Z,0
2017-03-20T01:54:08.474Z,0
2017-03-20T01:55:30.935Z,0
2017-03-20T01:56:53.052Z,0
2017-03-20T01:58:14.554Z,0
2017-03-20T01:59:37.245Z,0
2017-03-20T02:00:59.056Z,0
2017-03-20T02:02:21.302Z,0
2017-03-20T02:03:43.452Z,0
2017-03-20T02:05:06.297Z,0
2017-03-20T02:06:28.726Z,0
2017-03-20T02:07:50.216Z,0
2017-03-20T02:09:12.117Z,0
2017-03-20T02:10:34.888Z,0
2017-03-20T02:11:57.625Z,0
2017-03-20T02:13:19.766Z,0
2017-03-20T02:14:41.612Z,0
2017-03-20T02:16:03.362Z,0
2017-03-20T02:17:24.863Z,0
2017-03-20T02:18:46.370Z,0
2017-03-20T02:20:08.187Z,0
2017-03-20T02:21:30.886Z,0
2017-03-20T02:22:53.012Z,0
2017-03-20T02:24:15.160Z,0
2017-03-20T02:25:37.928Z,0
2017-03-20T02:27:00.687Z,0
2017-03-20T02:28:22.823Z,0
2017-03-20T02:29:44.635Z,0
2017-03-20T02:31:07.181Z,0
2017-03-20T02:32:29.611Z,0
2017-03-20T02:33:52.085Z,0
2017-03-20T02:35:13.908Z,0
2017-03-20T02:36:36.032Z,0
2017-03-20T02:37:58.460Z,0
2017-03-20T02:39:20.285Z,0
2017-03-20T02:40:41.926Z,0
2017-03-20T02:42:03.976Z,0
2017-03-20T02:43:26.726Z,0
2017-03-20T02:44:48.537Z,0
2017-03-20T02:46:10.097Z,0
2017-03-20T02:47:31.920Z,0
2017-03-20T02:48:54.417Z,0
2017-03-20T02:50:16.561Z,0
2017-03-20T02:51:39.007Z,0
2017-03-20T02:53:01.123Z,0
2017-03-20T02:54:24.057Z,0
2017-03-20T02:55:45.882Z,0
2017-03-20T02:57:08.004Z,0
2017-03-20T02:58:30.133Z,0
2017-03-20T02:59:52.310Z,0
2017-03-20T03:01:14.473Z,0
2017-03-20T03:02:36.829Z,0
2017-03-20T03:03:58.662Z,0
2017-03-20T03:05:21.031Z,0
2017-03-20T03:06:42.863Z,0
2017-03-20T03:08:04.069Z,0
2017-03-20T03:09:26.632Z,0
2017-03-20T03:10:49.006Z,0
2017-03-20T03:12:10.792Z,0
2017-03-20T03:13:32.963Z,0
2017-03-20T03:14:54.807Z,0
2017-03-20T03:16:16.608Z,0
2017-03-20T03:17:38.407Z,0
2017-03-20T03:19:00.538Z,0
2017-03-20T03:20:22.091Z,0
2017-03-20T03:21:44.215Z,0
2017-03-20T03:23:06.415Z,0
2017-03-20T03:24:28.251Z,0
2017-03-20T03:25:50.097Z,0
2017-03-20T03:27:12.550Z,0
2017-03-20T03:28:34.692Z,0
2017-03-20T03:29:57.141Z,0
2017-03-20T03:31:19.247Z,0
2017-03-20T03:32:41.525Z,0
2017-03-20T03:34:03.346Z,0
2017-03-20T03:35:25.153Z,0
2017-03-20T03:36:47.327Z,0
2017-03-20T03:38:09.767Z,0
2017-03-20T03:39:31.346Z,0
2017-03-20T03:40:53.160Z,0
2017-03-20T03:42:15.075Z,0
2017-03-20T03:43:37.448Z,0
2017-03-20T03:44:59.309Z,0
2017-03-20T03:46:21.761Z,0
2017-03-20T03:47:42.956Z,0
2017-03-20T03:49:05.435Z,0
2017-03-20T03:50:27.258Z,0
2017-03-20T03:51:49.784Z,0
2017-03-20T03:53:11.289Z,0
2017-03-20T03:54:34.140Z,0
2017-03-20T03:55:56.596Z,0
2017-03-20T03:57:18.096Z,0
2017-03-20T03:58:40.281Z,0
2017-03-20T04:00:02.703Z,0
2017-03-20T04:01:24.574Z,0
2017-03-20T04:02:46.746Z,0
2017-03-20T04:04:08.902Z,0
2017-03-20T04:05:31.656Z,0
2017-03-20T04:06:53.787Z,0
2017-03-20T04:08:16.250Z,0
2017-03-20T04:09:38.064Z,0
2017-03-20T04:11:00.208Z,0
2017-03-20T04:12:22.666Z,0
2017-03-20T04:13:44.826Z,0
2017-03-20T04:15:06.987Z,0
2017-03-20T04:16:28.801Z,0
2017-03-20T04:17:50.730Z,0
2017-03-20T04:19:12.646Z,0
2017-03-20T04:20:34.506Z,0
2017-03-20T04:21:56.942Z,0
2017-03-20T04:23:18.572Z,0
2017-03-20T04:24:40.714Z,0
2017-03-20T04:26:01.898Z,0
2017-03-20T04:27:24.266Z,0
2017-03-20T04:28:46.751Z,0
2017-03-20T04:30:09.247Z,0
2017-03-20T04:31:31.423Z,0
2017-03-20T04:32:54.184Z,0
2017-03-20T04:34:16.017Z,0
2017-03-20T04:35:37.206Z,0
2017-03-20T04:36:59.345Z,0
2017-03-20T04:38:21.213Z,0
2017-03-20T04:39:42.718Z,0
2017-03-20T04:41:04.863Z,0
2017-03-20T04:42:26.986Z,0
2017-03-20T04:43:49.552Z,0
2017-03-20T04:45:11.364Z,0
2017-03-20T04:46:33.167Z,0
2017-03-20T04:47:55.436Z,0
2017-03-20T04:49:18.141Z,0
2017-03-20T04:50:39.986Z,0
2017-03-20T04:52:02.132Z,0
2017-03-20T04:53:24.286Z,0
2017-03-20T04:54:46.676Z,0
2017-03-20T04:56:08.853Z,0
2017-03-20T04:57:30.988Z,0
2017-03-20T04:58:53.595Z,0
2017-03-20T05:00:15.741Z,0
2017-03-20T05:01:37.788Z,0
2017-03-20T05:02:59.804Z,0
2017-03-20T05:04:22.290Z,0
2017-03-20T05:05:44.825Z,0
2017-03-20T05:07:06.967Z,0
2017-03-20T05:08:29.108Z,0
2017-03-20T05:09:51.552Z,0
2017-03-20T05:11:14.259Z,0
2017-03-20T05:12:36.891Z,0
2017-03-20T05:13:59.037Z,0
2017-03-20T05:15:21.187Z,0
2017-03-20T05:16:43.373Z,0
2017-03-20T05:18:05.394Z,0
2017-03-20T05:19:27.286Z,0
2017-03-20T05:20:49.415Z,0
2017-03-20T05:22:11.831Z,0
2017-03-20T05:23:33.986Z,0
2017-03-20T05:24:55.916Z,0
2017-03-20T05:26:18.030Z,0
2017-03-20T05:27:40.241Z,0
2017-03-20T05:29:02.415Z,0
2017-03-20T05:30:23.927Z,0
2017-03-20T05:31:46.086Z,0
2017-03-20T05:33:08.506Z,5
2017-03-20T05:34:30.386Z,5
2017-03-20T05:35:51.963Z,5
2017-03-20T05:37:13.785Z,5
2017-03-20T05:38:36.245Z,5
2017-03-20T05:39:58.448Z,5
2017-03-20T05:41:20.584Z,5
2017-03-20T05:42:42.735Z,5
2017-03-20T05:44:05.499Z,5
2017-03-20T05:45:27.327Z,5
2017-03-20T05:46:49.142Z,5
2017-03-20T05:48:11.636Z,5
2017-03-20T05:49:34.036Z,5
2017-03-20T05:50:56.546Z,5
2017-03-20T05:52:18.702Z,5
2017-03-20T05:53:41.162Z,5
2017-03-20T05:55:03.926Z,5
2017-03-20T05:56:26.076Z,5
2017-03-20T05:57:48.305Z,10
2017-03-20T05:59:10.137Z,10
2017-03-20T06:00:32.593Z,15
2017-03-20T06:01:54.141Z,15
2017-03-20T06:03:16.637Z,15
2017-03-20T06:04:38.815Z,15
2017-03-20T06:06:01.328Z,20
2017-03-20T06:07:23.940Z,20
2017-03-20T06:08:46.425Z,20
2017-03-20T06:10:08.291Z,25
2017-03-20T06:11:30.496Z,30
2017-03-20T06:12:52.949Z,35
2017-03-20T06:14:15.176Z,35
2017-03-20T06:15:36.371Z,40
2017-03-20T06:16:58.824Z,35
2017-03-20T06:18:20.982Z,40
2017-03-20T06:19:43.426Z,50
2017-03-20T06:21:05.587Z,50
2017-03-20T06:22:27.988Z,55
2017-03-20T06:23:50.154Z,55
2017-03-20T06:25:12.337Z,50
2017-03-20T06:26:34.487Z,50
2017-03-20T06:27:56.918Z,45
2017-03-20T06:29:18.764Z,45
2017-03-20T06:30:41.269Z,45
2017-03-20T06:32:03.736Z,45
2017-03-20T06:33:26.197Z,50
2017-03-20T06:34:48.344Z,45
2017-03-20T06:36:10.566Z,35
2017-03-20T06:37:32.738Z,35
2017-03-20T06:38:54.805Z,40
2017-03-20T06:40:17.236Z,40
2017-03-20T06:41:39.439Z,45
2017-03-20T06:43:01.635Z,60
2017-03-20T06:44:24.135Z,60
2017-03-20T06:45:45.726Z,60
2017-03-20T06:47:07.943Z,60
2017-03-20T06:48:30.096Z,60
2017-03-20T06:49:52.808Z,60
2017-03-20T06:51:14.956Z,60
2017-03-20T06:52:36.763Z,50
2017-03-20T06:53:58.576Z,55
2017-03-20T06:55:20.965Z,50
2017-03-20T06:56:42.895Z,45
2017-03-20T06:58:05.174Z,50
2017-03-20T06:59:27.440Z,45
2017-03-20T07:00:49.885Z,45
2017-03-20T07:02:12.356Z,45
2017-03-20T07:03:34.515Z,40
2017-03-20T07:04:56.353Z,45
2017-03-20T07:06:18.733Z,40
2017-03-20T07:07:40.614Z,40
2017-03-20T07:09:02.619Z,45
2017-03-20T07:10:24.810Z,40
2017-03-20T07:11:47.256Z,35
2017-03-20T07:13:09.637Z,40
2017-03-20T07:14:31.792Z,35
2017-03-20T07:15:53.312Z,35
2017-03-20T07:17:15.139Z,30
2017-03-20T07:18:37.318Z,30
2017-03-20T07:19:59.477Z,30
2017-03-20T07:21:21.319Z,35
2017-03-20T07:22:44.016Z,40
2017-03-20T07:24:06.458Z,50
2017-03-20T07:25:28.916Z,50
2017-03-20T07:26:50.753Z,65
2017-03-20T07:28:13.746Z,70
2017-03-20T07:29:35.574Z,65
2017-03-20T07:30:57.706Z,75
2017-03-20T07:32:19.546Z,75
2017-03-20T07:33:41.995Z,90
2017-03-20T07:35:04.628Z,95
2017-03-20T07:36:26.825Z,85
2017-03-20T07:37:49.277Z,75
2017-03-20T07:39:12.055Z,80
2017-03-20T07:40:34.545Z,80
2017-03-20T07:41:56.999Z,90
2017-03-20T07:43:19.199Z,90
2017-03-20T07:44:41.479Z,85
2017-03-20T07:46:03.358Z,75
2017-03-20T07:47:25.517Z,70
2017-03-20T07:48:47.998Z,75
2017-03-20T07:50:10.485Z,75
2017-03-20T07:51:32.630Z,60
2017-03-20T07:52:54.900Z,55
2017-03-20T07:54:17.530Z,55
2017-03-20T07:55:40.346Z,55
2017-03-20T07:57:02.666Z,50
2017-03-20T07:58:24.507Z,50
2017-03-20T07:59:47.085Z,55
2017-03-20T08:01:09.222Z,65
2017-03-20T08:02:30.747Z,60
2017-03-20T08:03:52.886Z,55
2017-03-20T08:05:15.477Z,55
2017-03-20T08:06:38.269Z,55
2017-03-20T08:08:00.464Z,55
2017-03-20T08:09:22.319Z,60
2017-03-20T08:10:44.777Z,70
2017-03-20T08:12:07.547Z,65
2017-03-20T08:13:29.903Z,65
2017-03-20T08:14:52.190Z,90
2017-03-20T08:16:14.116Z,80
2017-03-20T08:17:36.610Z,95
2017-03-20T08:18:58.759Z,75
2017-03-20T08:20:20.896Z,75
2017-03-20T08:21:43.098Z,80
2017-03-20T08:23:05.548Z,65
2017-03-20T08:24:27.764Z,55
2017-03-20T08:25:49.705Z,65
2017-03-20T08:27:11.539Z,65
2017-03-20T08:28:34.316Z,80
2017-03-20T08:29:56.778Z,70
2017-03-20T08:31:19.248Z,70
2017-03-20T08:32:41.416Z,70
2017-03-20T08:34:03.568Z,75
2017-03-20T08:35:26.049Z,75
2017-03-20T08:36:47.952Z,80
2017-03-20T08:38:09.796Z,95
2017-03-20T08:39:32.358Z,125
2017-03-20T08:40:54.596Z,125
2017-03-20T08:42:16.416Z,155
2017-03-20T08:43:38.259Z,170
2017-03-20T08:45:00.997Z,160
2017-03-20T08:46:23.144Z,165
2017-03-20T08:47:45.339Z,145
2017-03-20T08:49:07.168Z,145
2017-03-20T08:50:28.952Z,115
2017-03-20T08:51:51.117Z,125
2017-03-20T08:53:13.931Z,130
2017-03-20T08:54:36.391Z,145
2017-03-20T08:55:59.176Z,240
2017-03-20T08:57:21.015Z,220
2017-03-20T08:58:43.541Z,190
2017-03-20T09:00:05.071Z,195
2017-03-20T09:01:27.754Z,190
2017-03-20T09:02:49.269Z,165
2017-03-20T09:04:11.088Z,170
2017-03-20T09:05:33.246Z,160
2017-03-20T09:06:55.494Z,115
2017-03-20T09:08:17.429Z,110
2017-03-20T09:09:40.008Z,130
2017-03-20T09:11:01.972Z,95
2017-03-20T09:12:24.769Z,135
2017-03-20T09:13:47.326Z,165
2017-03-20T09:15:09.494Z,150
2017-03-20T09:16:31.087Z,140
2017-03-20T09:17:53.529Z,165
2017-03-20T09:19:16.007Z,170
2017-03-20T09:20:38.520Z,170
2017-03-20T09:22:00.668Z,175
2017-03-20T09:23:23.105Z,180
2017-03-20T09:24:45.347Z,160
2017-03-20T09:26:07.859Z,170
2017-03-20T09:27:30.046Z,170
2017-03-20T09:28:51.829Z,170
2017-03-20T09:30:14.288Z,180
2017-03-20T09:31:36.425Z,155
2017-03-20T09:32:58.257Z,185
2017-03-20T09:34:21.131Z,180
2017-03-20T09:35:43.575Z,170
2017-03-20T09:37:06.026Z,155
2017-03-20T09:38:28.155Z,185
2017-03-20T09:39:50.617Z,175
2017-03-20T09:41:12.467Z,210
2017-03-20T09:42:34.433Z,175
2017-03-20T09:43:56.610Z,180
2017-03-20T09:45:19.353Z,180
2017-03-20T09:46:41.479Z,185
2017-03-20T09:48:03.386Z,165
2017-03-20T09:49:25.545Z,195
2017-03-20T09:50:48.244Z,170
2017-03-20T09:52:10.416Z,145
2017-03-20T09:53:32.610Z,160
2017-03-20T09:54:54.783Z,195
2017-03-20T09:56:17.602Z,190
2017-03-20T09:57:39.755Z,230
2017-03-20T09:59:02.243Z,300
2017-03-20T10:00:24.477Z,360
2017-03-20T10:01:46.981Z,280
2017-03-20T10:03:09.437Z,315
2017-03-20T10:04:31.265Z,260
2017-03-20T10:05:53.714Z,285
2017-03-20T10:07:16.136Z,255
2017-03-20T10:08:37.660Z,215
2017-03-20T10:10:00.164Z,260
2017-03-20T10:11:22.609Z,295
2017-03-20T10:12:44.765Z,245
2017-03-20T10:14:06.995Z,255
2017-03-20T10:15:29.598Z,295
2017-03-20T10:16:52.044Z,220
2017-03-20T10:18:14.818Z,245
2017-03-20T10:19:36.667Z,230
2017-03-20T10:20:58.847Z,290
2017-03-20T10:22:21.311Z,365
2017-03-20T10:23:44.108Z,410
2017-03-20T10:25:06.674Z,345
2017-03-20T10:26:28.369Z,235
2017-03-20T10:27:50.870Z,285
2017-03-20T10:29:13.622Z,320
2017-03-20T10:30:36.140Z,300
2017-03-20T10:31:58.759Z,275
2017-03-20T10:33:20.627Z,250
2017-03-20T10:34:42.128Z,220
2017-03-20T10:36:04.291Z,185
2017-03-20T10:37:26.832Z,185
2017-03-20T10:38:48.343Z,175
2017-03-20T10:40:10.516Z,160
2017-03-20T10:41:32.696Z,145
2017-03-20T10:42:54.957Z,125
2017-03-20T10:44:16.816Z,120
2017-03-20T10:45:39.225Z,120
2017-03-20T10:47:01.388Z,125
2017-03-20T10:48:23.551Z,120
2017-03-20T10:49:46.034Z,115
2017-03-20T10:51:07.847Z,115
2017-03-20T10:52:30.006Z,160
2017-03-20T10:53:52.216Z,175
2017-03-20T10:55:14.876Z,220
2017-03-20T10:56:37.343Z,230
2017-03-20T10:57:59.814Z,245
2017-03-20T10:59:21.033Z,190
2017-03-20T11:00:43.204Z,235
2017-03-20T11:02:04.967Z,215
2017-03-20T11:03:27.449Z,270
2017-03-20T11:04:49.289Z,230
2017-03-20T11:06:12.014Z,275
2017-03-20T11:07:34.436Z,240
2017-03-20T11:08:56.607Z,235
2017-03-20T11:10:19.068Z,200
2017-03-20T11:11:41.269Z,200
2017-03-20T11:13:03.740Z,165
2017-03-20T11:14:26.267Z,185
2017-03-20T11:15:48.397Z,165
2017-03-20T11:17:10.514Z,210
2017-03-20T11:18:32.587Z,215
2017-03-20T11:19:54.435Z,280
2017-03-20T11:21:16.264Z,305
2017-03-20T11:22:38.519Z,295
2017-03-20T11:24:01.308Z,300
2017-03-20T11:25:23.835Z,290
2017-03-20T11:26:46.002Z,300
2017-03-20T11:28:08.486Z,310
2017-03-20T11:29:31.315Z,340
2017-03-20T11:30:53.785Z,300
2017-03-20T11:32:16.348Z,335
2017-03-20T11:33:38.819Z,330
2017-03-20T11:35:01.607Z,295
2017-03-20T11:36:23.753Z,260
2017-03-20T11:37:46.017Z,275
2017-03-20T11:39:07.651Z,245
2017-03-20T11:40:30.081Z,225
2017-03-20T11:41:52.694Z,235
2017-03-20T11:43:14.598Z,200
2017-03-20T11:44:36.737Z,225
2017-03-20T11:45:59.490Z,205
2017-03-20T11:47:21.328Z,275
2017-03-20T11:48:43.827Z,235
2017-03-20T11:50:06.298Z,240
2017-03-20T11:51:28.457Z,235
2017-03-20T11:52:51.005Z,210
2017-03-20T11:54:13.260Z,205
2017-03-20T11:55:35.526Z,220
2017-03-20T11:56:58.517Z,255
2017-03-20T11:58:20.669Z,255
2017-03-20T11:59:43.176Z,270
2017-03-20T12:01:05.659Z,275
2017-03-20T12:02:28.344Z,275
2017-03-20T12:03:50.167Z,225
2017-03-20T12:05:12.324Z,340
2017-03-20T12:06:33.260Z,320
2017-03-20T12:07:56.049Z,260
2017-03-20T12:09:18.587Z,265
2017-03-20T12:10:40.739Z,300
2017-03-20T12:12:02.583Z,275
2017-03-20T12:13:24.726Z,340
2017-03-20T12:14:46.977Z,305
2017-03-20T12:16:09.173Z,375
2017-03-20T12:17:31.657Z,375
2017-03-20T12:18:54.485Z,380
2017-03-20T12:20:17.155Z,385
2017-03-20T12:21:39.332Z,375
2017-03-20T12:23:01.830Z,395
2017-03-20T12:24:24.272Z,385
2017-03-20T12:25:46.483Z,335
2017-03-20T12:27:09.167Z,265
2017-03-20T12:28:31.327Z,300
2017-03-20T12:29:53.460Z,285
2017-03-20T12:31:15.946Z,280
2017-03-20T12:32:38.159Z,195
2017-03-20T12:34:00.628Z,225
2017-03-20T12:35:23.075Z,200
2017-03-20T12:36:45.601Z,225
2017-03-20T12:38:08.078Z,140
2017-03-20T12:39:30.638Z,175
2017-03-20T12:40:52.697Z,165
2017-03-20T12:42:14.616Z,155
2017-03-20T12:43:36.806Z,185
2017-03-20T12:44:59.051Z,180
2017-03-20T12:46:21.848Z,320
2017-03-20T12:47:44.054Z,350
2017-03-20T12:49:06.517Z,325
2017-03-20T12:50:28.987Z,340
2017-03-20T12:51:51.477Z,255
2017-03-20T12:53:13.990Z,215
2017-03-20T12:54:36.265Z,240
2017-03-20T12:55:58.426Z,170
2017-03-20T12:57:20.687Z,115
2017-03-20T12:58:42.592Z,155
2017-03-20T13:00:05.144Z,190
2017-03-20T13:01:27.216Z,220
2017-03-20T13:02:49.296Z,245
2017-03-20T13:04:11.469Z,290
2017-03-20T13:05:33.321Z,240
2017-03-20T13:06:55.505Z,190
2017-03-20T13:08:18.518Z,180
2017-03-20T13:09:41.037Z,205
2017-03-20T13:11:03.534Z,180
2017-03-20T13:12:25.685Z,180
2017-03-20T13:13:47.760Z,165
2017-03-20T13:15:10.239Z,170
2017-03-20T13:16:32.845Z,135
2017-03-20T13:17:55.049Z,175
2017-03-20T13:19:17.572Z,175
2017-03-20T13:20:40.036Z,255
2017-03-20T13:22:02.315Z,240
2017-03-20T13:23:24.817Z,245
2017-03-20T13:24:47.374Z,200
2017-03-20T13:26:09.830Z,160
2017-03-20T13:27:31.365Z,190
2017-03-20T13:28:53.250Z,195
2017-03-20T13:30:15.777Z,175
2017-03-20T13:31:38.246Z,180
2017-03-20T13:33:00.912Z,225
2017-03-20T13:34:23.070Z,185
2017-03-20T13:35:45.888Z,210
2017-03-20T13:37:08.363Z,195
2017-03-20T13:38:30.502Z,220
2017-03-20T13:39:53.015Z,275
2017-03-20T13:41:15.109Z,280
2017-03-20T13:42:36.953Z,210
2017-03-20T13:43:59.444Z,215
2017-03-20T13:45:21.903Z,220
2017-03-20T13:46:44.608Z,180
2017-03-20T13:48:06.847Z,195
2017-03-20T13:49:29.329Z,175
2017-03-20T13:50:51.241Z,185
2017-03-20T13:52:13.751Z,220
2017-03-20T13:53:35.600Z,230
2017-03-20T13:54:58.219Z,200
2017-03-20T13:56:20.376Z,210
2017-03-20T13:57:43.210Z,225
2017-03-20T13:59:05.806Z,235
2017-03-20T14:00:27.636Z,210
2017-03-20T14:01:49.787Z,195
2017-03-20T14:03:12.481Z,205
2017-03-20T14:04:34.662Z,185
2017-03-20T14:05:56.921Z,165
2017-03-20T14:07:18.772Z,145
2017-03-20T14:08:41.570Z,115
2017-03-20T14:10:03.890Z,110
2017-03-20T14:11:26.366Z,115
2017-03-20T14:12:48.532Z,160
2017-03-20T14:14:10.937Z,160
2017-03-20T14:15:33.287Z,150
2017-03-20T14:16:55.803Z,215
2017-03-20T14:18:18.287Z,155
2017-03-20T14:19:41.128Z,130
2017-03-20T14:21:03.630Z,140
2017-03-20T14:22:26.116Z,120
2017-03-20T14:23:47.969Z,90
2017-03-20T14:25:10.760Z,80
2017-03-20T14:26:33.266Z,95
2017-03-20T14:27:55.418Z,110
2017-03-20T14:29:17.964Z,110
2017-03-20T14:30:40.717Z,155
2017-03-20T14:32:02.556Z,165
2017-03-20T14:33:25.045Z,185
2017-03-20T14:34:47.556Z,205
2017-03-20T14:36:10.129Z,210
2017-03-20T14:37:32.301Z,180
2017-03-20T14:38:54.149Z,185
2017-03-20T14:40:16.313Z,160
2017-03-20T14:41:38.714Z,170
2017-03-20T14:43:01.195Z,115
2017-03-20T14:44:23.698Z,95
2017-03-20T14:45:45.968Z,70
2017-03-20T14:47:08.792Z,45
2017-03-20T14:48:31.478Z,50
2017-03-20T14:49:53.632Z,55
2017-03-20T14:51:15.795Z,60
2017-03-20T14:52:38.673Z,70
2017-03-20T14:54:01.145Z,60
2017-03-20T14:55:23.670Z,65
2017-03-20T14:56:45.833Z,55
2017-03-20T14:58:08.627Z,55
2017-03-20T14:59:30.942Z,75
2017-03-20T15:00:53.426Z,85
2017-03-20T15:02:15.937Z,90
2017-03-20T15:03:38.646Z,110
2017-03-20T15:05:00.491Z,85
2017-03-20T15:06:23.068Z,75
2017-03-20T15:07:45.239Z,100
2017-03-20T15:09:07.688Z,75
2017-03-20T15:10:30.174Z,80
2017-03-20T15:11:52.321Z,65
2017-03-20T15:13:14.804Z,80
2017-03-20T15:14:37.266Z,95
2017-03-20T15:15:59.729Z,80
2017-03-20T15:17:22.191Z,115
2017-03-20T15:18:44.681Z,100
2017-03-20T15:20:07.412Z,85
2017-03-20T15:21:29.891Z,70
2017-03-20T15:22:52.382Z,75
2017-03-20T15:24:14.876Z,65
2017-03-20T15:25:37.628Z,65
2017-03-20T15:27:00.088Z,80
2017-03-20T15:28:22.612Z,75
2017-03-20T15:29:45.301Z,85
2017-03-20T15:31:08.237Z,115
2017-03-20T15:32:30.087Z,105
2017-03-20T15:33:52.589Z,110
2017-03-20T15:35:14.814Z,100
2017-03-20T15:36:37.309Z,120
2017-03-20T15:37:59.792Z,90
2017-03-20T15:39:21.986Z,60
2017-03-20T15:40:44.178Z,60
2017-03-20T15:42:06.855Z,60
2017-03-20T15:43:29.695Z,65
2017-03-20T15:44:52.232Z,60
2017-03-20T15:46:14.735Z,65
2017-03-20T15:47:37.210Z,55
2017-03-20T15:48:59.349Z,55
2017-03-20T15:50:21.869Z,50
2017-03-20T15:51:44.366Z,60
2017-03-20T15:53:07.161Z,60
2017-03-20T15:54:29.318Z,65
2017-03-20T15:55:51.446Z,65
2017-03-20T15:57:14.007Z,65
2017-03-20T15:58:36.127Z,45
2017-03-20T15:59:58.619Z,35
2017-03-20T16:01:21.131Z,35
2017-03-20T16:02:43.365Z,35
2017-03-20T16:04:05.928Z,35
2017-03-20T16:05:28.383Z,35
2017-03-20T16:06:50.234Z,35
2017-03-20T16:08:12.751Z,45
2017-03-20T16:09:35.167Z,45
2017-03-20T16:10:57.627Z,40
2017-03-20T16:12:20.438Z,55
2017-03-20T16:13:42.607Z,50
2017-03-20T16:15:05.375Z,60
2017-03-20T16:16:27.555Z,50
2017-03-20T16:17:50.156Z,50
2017-03-20T16:19:12.655Z,50
2017-03-20T16:20:35.643Z,45
2017-03-20T16:21:57.876Z,50
2017-03-20T16:23:20.658Z,40
2017-03-20T16:24:42.836Z,40
2017-03-20T16:26:05.678Z,35
2017-03-20T16:27:27.552Z,30
2017-03-20T16:29:08.621Z,30
2017-03-20T16:30:30.838Z,20
2017-03-20T16:32:22.455Z,20
2017-03-20T16:33:44.758Z,15
2017-03-20T16:35:07.384Z,15
2017-03-20T16:36:29.566Z,10
2017-03-20T16:37:52.310Z,10
2017-03-20T16:39:14.487Z,10
2017-03-20T16:40:36.695Z,10
2017-03-20T16:41:58.546Z,10
2017-03-20T16:43:21.148Z,10
2017-03-20T16:44:43.289Z,10
2017-03-20T16:46:05.784Z,10
2017-03-20T16:47:27.976Z,10
2017-03-20T16:48:50.748Z,10
2017-03-20T16:50:13.494Z,10
2017-03-20T16:51:35.982Z,5
2017-03-20T16:52:58.487Z,5
2017-03-20T16:54:21.723Z,5
2017-03-20T16:55:44.222Z,5
2017-03-20T16:57:06.702Z,5
2017-03-20T16:58:28.706Z,5
2017-03-20T16:59:50.853Z,5
2017-03-20T17:01:13.795Z,5
2017-03-20T17:02:35.323Z,5
2017-03-20T17:03:57.967Z,5
2017-03-20T17:05:20.772Z,5
2017-03-20T17:06:42.954Z,5
2017-03-20T17:08:04.481Z,10
2017-03-20T17:09:26.658Z,10
2017-03-20T17:10:49.129Z,5
2017-03-20T17:12:11.619Z,5
2017-03-20T17:13:34.131Z,5
2017-03-20T17:14:56.373Z,5
2017-03-20T17:16:19.133Z,5
2017-03-20T17:17:41.562Z,5
2017-03-20T17:19:04.070Z,5
2017-03-20T17:20:26.324Z,5
2017-03-20T17:21:49.218Z,5
2017-03-20T17:23:11.501Z,0
2017-03-20T17:24:34.240Z,0
2017-03-20T17:25:57.019Z,0
2017-03-20T17:27:19.739Z,0
2017-03-20T17:28:41.963Z,0
2017-03-20T17:30:04.719Z,0
2017-03-20T17:31:27.249Z,0
2017-03-20T17:32:49.694Z,0
2017-03-20T17:34:12.407Z,0
2017-03-20T17:35:34.586Z,0
2017-03-20T17:36:57.299Z,0
2017-03-20T17:38:19.747Z,0
2017-03-20T17:39:42.334Z,0
2017-03-20T17:41:04.538Z,0
2017-03-20T17:42:27.068Z,0
2017-03-20T17:43:49.823Z,0
2017-03-20T17:45:12.415Z,0
2017-03-20T17:46:34.937Z,0
2017-03-20T17:47:57.157Z,0
2017-03-20T17:49:20.051Z,0
2017-03-20T17:50:42.211Z,0
2017-03-20T17:52:04.160Z,0
2017-03-20T17:53:26.381Z,0
2017-03-20T17:54:48.918Z,0
2017-03-20T17:56:11.140Z,0
2017-03-20T17:57:33.330Z,0
2017-03-20T17:58:55.831Z,0
2017-03-20T18:00:18.637Z,0
2017-03-20T18:01:41.156Z,0
2017-03-20T18:03:03.127Z,0
2017-03-20T18:04:25.347Z,0
2017-03-20T18:05:48.197Z,0
2017-03-20T18:07:10.399Z,0
2017-03-20T18:08:32.891Z,0
2017-03-20T18:09:55.389Z,0
2017-03-20T18:11:18.339Z,0
2017-03-20T18:12:40.848Z,0
2017-03-20T18:14:03.016Z,0
2017-03-20T18:15:25.239Z,0
2017-03-20T18:16:47.734Z,0
2017-03-20T18:18:10.321Z,0
2017-03-20T18:19:32.694Z,0
2017-03-20T18:20:54.869Z,0
2017-03-20T18:22:17.676Z,0
2017-03-20T18:23:40.436Z,0
2017-03-20T18:25:02.941Z,0
2017-03-20T18:26:25.426Z,0
2017-03-20T18:27:48.300Z,0
2017-03-20T18:29:10.150Z,0
2017-03-20T18:30:32.660Z,0
2017-03-20T18:31:54.530Z,0
2017-03-20T18:33:17.060Z,0
2017-03-20T18:34:39.248Z,0
2017-03-20T18:36:01.736Z,0
2017-03-20T18:37:24.299Z,0
2017-03-20T18:38:46.925Z,0
2017-03-20T18:40:09.248Z,0
2017-03-20T18:41:31.800Z,0
2017-03-20T18:42:54.320Z,0
2017-03-20T18:44:16.556Z,0
2017-03-20T18:45:39.047Z,0
2017-03-20T18:47:00.909Z,0
2017-03-20T18:48:23.388Z,0
2017-03-20T18:49:45.936Z,0
2017-03-20T18:51:08.208Z,0
2017-03-20T18:52:30.375Z,0
2017-03-20T18:53:52.916Z,0
2017-03-20T18:55:15.709Z,0
2017-03-20T18:56:37.870Z,0
2017-03-20T18:58:00.410Z,0
2017-03-20T18:59:22.598Z,0
2017-03-20T19:00:45.050Z,0
2017-03-20T19:02:06.910Z,0
2017-03-20T19:03:29.443Z,0
2017-03-20T19:04:51.948Z,0
2017-03-20T19:06:14.736Z,0
2017-03-20T19:07:37.375Z,0
2017-03-20T19:08:59.876Z,0
2017-03-20T19:10:22.062Z,0
2017-03-20T19:11:44.199Z,0
2017-03-20T19:13:06.760Z,0
2017-03-20T19:14:29.267Z,0
2017-03-20T19:15:51.643Z,0
2017-03-20T19:17:14.175Z,0
2017-03-20T19:18:36.777Z,0
2017-03-20T19:19:59.266Z,0
2017-03-20T19:21:21.467Z,0
2017-03-20T19:22:43.615Z,0
2017-03-20T19:24:05.837Z,0
2017-03-20T19:25:28.358Z,0
2017-03-20T19:26:50.877Z,0
2017-03-20T19:28:13.349Z,0
2017-03-20T19:29:35.924Z,0
2017-03-20T19:30:58.197Z,0
2017-03-20T19:32:20.418Z,0
2017-03-20T19:33:42.955Z,0
2017-03-20T19:35:05.486Z,0
2017-03-20T19:36:28.047Z,0
2017-03-20T19:37:50.265Z,0
2017-03-20T19:39:13.130Z,0